createdAt,value
2018-04-26T00:02:05.209Z,5.40
2018-04-26T00:04:33.418Z,5.53
2018-04-26T00:07:02.404Z,5.57
2018-04-26T00:09:31.292Z,6.37
2018-04-26T00:12:00.283Z,5.80
2018-04-26T00:14:29.175Z,5.40
2018-04-26T00:16:58.063Z,6.27
2018-04-26T00:19:26.967Z,6.77
2018-04-26T00:21:55.848Z,6.60
2018-04-26T00:24:24.831Z,6.30
2018-04-26T00:26:53.830Z,5.20
2018-04-26T00:29:22.715Z,6.20
2018-04-26T00:31:51.642Z,6.13
2018-04-26T00:34:19.755Z,5.70
2018-04-26T00:36:47.891Z,6.37
2018-04-26T00:39:16.029Z,5.57
2018-04-26T00:41:45.011Z,5.10
2018-04-26T00:44:13.910Z,5.37
2018-04-26T00:46:42.889Z,5.23
2018-04-26T00:49:11.778Z,5.90
2018-04-26T00:51:52.653Z,5.93
2018-04-26T00:54:21.540Z,5.40
2018-04-26T00:56:50.426Z,6.43
2018-04-26T00:59:19.458Z,5.80
2018-04-26T01:01:47.547Z,6.20
2018-04-26T01:04:15.772Z,4.73
2018-04-26T01:06:44.651Z,5.23
2018-04-26T01:09:13.548Z,5.20
2018-04-26T01:11:43.624Z,4.30
2018-04-26T01:14:11.754Z,4.17
2018-04-26T01:16:40.004Z,4.60
2018-04-26T01:19:08.988Z,3.40
2018-04-26T01:21:37.126Z,3.90
2018-04-26T01:24:05.258Z,3.57
2018-04-26T01:26:33.438Z,3.63
2018-04-26T01:29:01.627Z,3.80
2018-04-26T01:31:29.732Z,3.47
2018-04-26T01:33:57.936Z,3.70
2018-04-26T01:36:38.693Z,3.53
2018-04-26T01:39:07.691Z,3.10
2018-04-26T01:41:36.678Z,3.30
2018-04-26T01:44:05.568Z,3.80
2018-04-26T01:46:34.450Z,3.37
2018-04-26T01:49:03.356Z,4.37
2018-04-26T01:51:31.531Z,3.93
2018-04-26T01:54:00.551Z,4.03
2018-04-26T01:56:28.679Z,3.70
2018-04-26T01:58:57.675Z,4.20
2018-04-26T02:01:26.564Z,3.33
2018-04-26T02:03:55.455Z,3.80
2018-04-26T02:06:24.447Z,3.43
2018-04-26T02:08:53.371Z,3.80
2018-04-26T02:11:21.471Z,3.67
2018-04-26T02:13:49.615Z,4.00
2018-04-26T02:16:17.972Z,3.47
2018-04-26T02:18:46.103Z,3.13
2018-04-26T02:21:14.295Z,3.37
2018-04-26T02:23:43.186Z,3.23
2018-04-26T02:26:12.180Z,3.20
2018-04-26T02:28:41.066Z,3.20
2018-04-26T02:31:09.258Z,3.37
2018-04-26T02:33:37.371Z,3.50
2018-04-26T02:36:05.631Z,3.37
2018-04-26T02:38:33.765Z,4.10
2018-04-26T02:41:02.747Z,4.35
2018-04-26T02:43:31.655Z,3.72
2018-04-26T02:45:59.798Z,3.77
2018-04-26T02:48:28.690Z,3.45
2018-04-26T02:50:57.592Z,3.72
2018-04-26T02:53:25.710Z,3.85
2018-04-26T02:55:53.925Z,3.60
2018-04-26T02:58:22.808Z,3.80
2018-04-26T03:00:50.947Z,3.45
2018-04-26T03:03:19.087Z,4.47
2018-04-26T03:05:47.227Z,3.20
2018-04-26T03:08:16.962Z,2.90
2018-04-26T03:10:45.752Z,3.15
2018-04-26T03:13:13.904Z,2.85
2018-04-26T03:15:42.886Z,2.90
2018-04-26T03:18:11.778Z,3.50
2018-04-26T03:20:40.783Z,2.55
2018-04-26T03:23:09.664Z,2.93
2018-04-26T03:25:38.658Z,2.67
2018-04-26T03:28:07.566Z,2.62
2018-04-26T03:30:35.686Z,2.87
2018-04-26T03:33:03.812Z,2.45
2018-04-26T03:35:31.954Z,2.60
2018-04-26T03:38:00.860Z,3.00
2018-04-26T03:40:29.003Z,3.08
2018-04-26T03:42:57.899Z,2.42
2018-04-26T03:45:26.794Z,2.20
2018-04-26T03:47:56.086Z,2.90
2018-04-26T03:50:24.258Z,2.40
2018-04-26T03:52:52.815Z,2.40
2018-04-26T03:55:21.318Z,2.58
2018-04-26T03:57:49.697Z,2.72
2018-04-26T04:00:29.930Z,1.95
2018-04-26T04:03:10.027Z,1.87
2018-04-26T04:05:52.170Z,1.95
2018-04-26T04:08:20.270Z,2.97
2018-04-26T04:10:49.192Z,1.80
2018-04-26T04:13:18.078Z,1.92
2018-04-26T04:15:46.207Z,2.20
2018-04-26T04:18:14.410Z,1.85
2018-04-26T04:20:43.305Z,1.90
2018-04-26T04:23:12.184Z,1.70
2018-04-26T04:25:41.182Z,1.90
2018-04-26T04:28:10.171Z,1.77
2018-04-26T04:30:39.160Z,1.75
2018-04-26T04:33:08.147Z,1.95
2018-04-26T04:35:37.147Z,1.58
2018-04-26T04:38:06.036Z,1.80
2018-04-26T04:40:34.934Z,1.85
2018-04-26T04:43:03.088Z,1.60
2018-04-26T04:45:32.004Z,1.45
2018-04-26T04:48:00.128Z,1.65
2018-04-26T04:50:29.858Z,1.50
2018-04-26T04:52:58.752Z,1.93
2018-04-26T04:55:27.655Z,1.60
2018-04-26T04:57:55.799Z,1.60
2018-04-26T05:00:24.697Z,1.70
2018-04-26T05:02:53.625Z,1.52
2018-04-26T05:05:21.764Z,1.67
2018-04-26T05:07:50.714Z,1.75
2018-04-26T05:10:18.947Z,1.62
2018-04-26T05:12:47.111Z,1.60
2018-04-26T05:15:15.231Z,1.80
2018-04-26T05:17:43.359Z,2.12
2018-04-26T05:20:11.479Z,2.15
2018-04-26T05:22:39.659Z,1.60
2018-04-26T05:25:07.776Z,1.83
2018-04-26T05:27:35.906Z,1.77
2018-04-26T05:30:04.127Z,2.20
2018-04-26T05:32:33.012Z,2.45
2018-04-26T05:35:01.217Z,2.62
2018-04-26T05:37:29.439Z,2.40
2018-04-26T05:39:58.423Z,2.87
2018-04-26T05:42:27.306Z,3.15
2018-04-26T05:44:56.187Z,2.50
2018-04-26T05:47:24.355Z,2.35
2018-04-26T05:49:52.479Z,2.30
2018-04-26T05:52:20.583Z,2.63
2018-04-26T05:54:48.696Z,2.65
2018-04-26T05:57:17.683Z,2.40
2018-04-26T05:59:46.559Z,3.08
2018-04-26T06:02:14.709Z,2.25
2018-04-26T06:04:42.915Z,2.70
2018-04-26T06:07:11.795Z,2.87
2018-04-26T06:09:39.899Z,3.30
2018-04-26T06:12:08.053Z,2.87
2018-04-26T06:14:36.139Z,2.62
2018-04-26T06:17:04.290Z,3.30
2018-04-26T06:19:33.172Z,3.33
2018-04-26T06:22:02.055Z,2.77
2018-04-26T06:24:31.023Z,2.70
2018-04-26T06:26:59.206Z,2.97
2018-04-26T06:29:28.996Z,2.67
2018-04-26T06:31:58.895Z,3.15
2018-04-26T06:34:27.039Z,2.70
2018-04-26T06:36:55.973Z,2.83
2018-04-26T06:39:24.081Z,2.60
2018-04-26T06:41:52.975Z,2.95
2018-04-26T06:44:21.976Z,2.72
2018-04-26T06:46:50.146Z,3.30
2018-04-26T06:49:18.258Z,2.70
2018-04-26T06:51:46.487Z,2.50
2018-04-26T06:54:15.479Z,3.05
2018-04-26T06:56:43.619Z,2.62
2018-04-26T06:59:11.769Z,2.50
2018-04-26T07:01:39.894Z,2.87
2018-04-26T07:04:08.049Z,2.65
2018-04-26T07:06:36.156Z,2.93
2018-04-26T07:09:04.302Z,2.87
2018-04-26T07:11:33.193Z,2.50
2018-04-26T07:14:02.095Z,2.80
2018-04-26T07:16:30.208Z,2.90
2018-04-26T07:18:58.422Z,2.45
2018-04-26T07:21:27.328Z,2.80
2018-04-26T07:23:55.495Z,3.10
2018-04-26T07:26:24.379Z,3.05
2018-04-26T07:28:52.550Z,3.03
2018-04-26T07:31:20.926Z,2.95
2018-04-26T07:33:49.828Z,2.70
2018-04-26T07:36:18.728Z,3.17
2018-04-26T07:38:46.856Z,2.42
2018-04-26T07:41:15.017Z,2.50
2018-04-26T07:43:43.154Z,3.50
2018-04-26T07:46:11.273Z,2.70
2018-04-26T07:48:39.401Z,2.95
2018-04-26T07:51:07.522Z,3.10
2018-04-26T07:53:36.445Z,2.58
2018-04-26T07:56:04.673Z,3.22
2018-04-26T07:58:32.865Z,2.90
2018-04-26T08:01:01.752Z,2.80
2018-04-26T08:03:30.646Z,3.10
2018-04-26T08:05:58.783Z,3.22
2018-04-26T08:08:26.930Z,3.07
2018-04-26T08:10:55.071Z,2.90
2018-04-26T08:13:24.047Z,2.97
2018-04-26T08:15:52.942Z,3.00
2018-04-26T08:18:21.144Z,2.83
2018-04-26T08:20:49.241Z,3.35
2018-04-26T08:23:17.475Z,3.43
2018-04-26T08:25:45.582Z,2.95
2018-04-26T08:28:13.788Z,3.35
2018-04-26T08:30:41.907Z,3.05
2018-04-26T08:33:10.058Z,3.37
2018-04-26T08:35:38.174Z,3.00
2018-04-26T08:38:06.327Z,2.85
2018-04-26T08:40:34.448Z,3.00
2018-04-26T08:43:03.352Z,3.15
2018-04-26T08:45:31.561Z,3.60
2018-04-26T08:48:00.404Z,2.87
2018-04-26T08:50:29.298Z,3.15
2018-04-26T08:52:58.383Z,2.97
2018-04-26T08:55:27.308Z,3.17
2018-04-26T08:57:55.423Z,4.15
2018-04-26T09:00:23.548Z,3.12
2018-04-26T09:02:51.674Z,2.75
2018-04-26T09:05:19.825Z,3.10
2018-04-26T09:07:47.979Z,3.30
2018-04-26T09:10:16.163Z,3.50
2018-04-26T09:12:44.309Z,3.72
2018-04-26T09:15:12.439Z,3.20
2018-04-26T09:17:41.355Z,3.35
2018-04-26T09:20:09.495Z,3.40
2018-04-26T09:22:37.627Z,3.50
2018-04-26T09:25:05.764Z,3.50
2018-04-26T09:27:33.958Z,3.20
2018-04-26T09:30:02.117Z,4.22
2018-04-26T09:32:30.221Z,3.70
2018-04-26T09:34:58.440Z,3.97
2018-04-26T09:37:27.325Z,2.87
2018-04-26T09:39:56.223Z,3.50
2018-04-26T09:42:25.123Z,2.97
2018-04-26T09:44:53.283Z,2.85
2018-04-26T09:47:21.451Z,3.30
2018-04-26T09:49:50.379Z,3.12
2018-04-26T09:52:18.499Z,3.30
2018-04-26T09:54:46.631Z,3.40
2018-04-26T09:57:14.755Z,3.87
2018-04-26T09:59:43.648Z,3.80
2018-04-26T10:02:12.540Z,3.70
2018-04-26T10:04:47.019Z,3.92
2018-04-26T10:07:15.159Z,3.30
2018-04-26T10:09:43.284Z,3.30
2018-04-26T10:12:11.418Z,3.15
2018-04-26T10:14:39.643Z,3.20
2018-04-26T10:17:08.631Z,3.30
2018-04-26T10:19:37.536Z,3.20
2018-04-26T10:22:05.726Z,3.40
2018-04-26T10:24:33.924Z,3.30
2018-04-26T10:27:02.047Z,3.87
2018-04-26T10:29:30.937Z,3.37
2018-04-26T10:31:59.835Z,3.33
2018-04-26T10:34:27.983Z,2.92
2018-04-26T10:36:56.871Z,3.13
2018-04-26T10:39:25.857Z,3.60
2018-04-26T10:41:54.047Z,2.90
2018-04-26T10:44:22.211Z,3.00
2018-04-26T10:46:51.119Z,3.22
2018-04-26T10:49:20.025Z,3.08
2018-04-26T10:51:48.146Z,3.20
2018-04-26T10:54:16.286Z,2.60
2018-04-26T10:56:44.421Z,3.00
2018-04-26T10:59:12.547Z,2.85
2018-04-26T11:01:40.753Z,2.85
2018-04-26T11:04:09.664Z,3.00
2018-04-26T11:06:37.815Z,2.60
2018-04-26T11:09:06.728Z,2.65
2018-04-26T11:11:34.940Z,3.17
2018-04-26T11:14:03.003Z,2.70
2018-04-26T11:16:31.197Z,3.20
2018-04-26T11:18:59.319Z,3.15
2018-04-26T11:21:27.535Z,2.63
2018-04-26T11:23:57.174Z,2.60
2018-04-26T11:26:25.311Z,2.72
2018-04-26T11:28:53.612Z,3.00
2018-04-26T11:31:22.606Z,3.30
2018-04-26T11:33:51.695Z,3.00
2018-04-26T11:36:20.610Z,2.85
2018-04-26T11:38:48.732Z,3.05
2018-04-26T11:41:16.860Z,2.75
2018-04-26T11:43:44.996Z,2.80
2018-04-26T11:46:13.913Z,3.22
2018-04-26T11:48:42.063Z,2.75
2018-04-26T11:51:10.977Z,2.72
2018-04-26T11:53:39.109Z,3.33
2018-04-26T11:56:08.749Z,2.40
2018-04-26T11:58:36.885Z,2.95
2018-04-26T12:01:05.054Z,3.17
2018-04-26T12:03:33.234Z,3.37
2018-04-26T12:06:01.361Z,2.60
2018-04-26T12:08:29.476Z,3.05
2018-04-26T12:10:57.623Z,2.85
2018-04-26T12:13:25.932Z,2.90
2018-04-26T12:15:54.079Z,2.90
2018-04-26T12:18:22.242Z,2.50
2018-04-26T12:20:50.363Z,3.03
2018-04-26T12:23:19.278Z,2.60
2018-04-26T12:25:47.407Z,2.67
2018-04-26T12:28:16.428Z,2.20
2018-04-26T12:30:44.570Z,2.35
2018-04-26T12:33:12.700Z,1.80
2018-04-26T12:35:40.852Z,2.15
2018-04-26T12:38:08.960Z,2.13
2018-04-26T12:40:37.106Z,2.05
2018-04-26T12:43:05.251Z,1.60
2018-04-26T12:45:33.413Z,1.98
2018-04-26T12:48:01.565Z,2.10
2018-04-26T12:50:29.748Z,1.90
2018-04-26T12:52:58.654Z,1.90
2018-04-26T12:55:26.827Z,1.80
2018-04-26T12:57:54.993Z,1.95
2018-04-26T13:00:23.130Z,1.80
2018-04-26T13:02:51.294Z,1.87
2018-04-26T13:05:19.420Z,1.77
2018-04-26T13:07:47.552Z,1.80
2018-04-26T13:10:16.467Z,1.75
2018-04-26T13:12:45.352Z,1.90
2018-04-26T13:15:14.352Z,1.90
2018-04-26T13:17:42.932Z,2.15
2018-04-26T13:20:11.914Z,1.75
2018-04-26T13:22:40.852Z,1.97
2018-04-26T13:25:09.175Z,1.80
2018-04-26T13:27:37.295Z,2.03
2018-04-26T13:30:05.530Z,1.95
2018-04-26T13:32:34.414Z,1.50
2018-04-26T13:35:02.581Z,2.42
2018-04-26T13:37:30.708Z,1.80
2018-04-26T13:39:58.874Z,1.75
2018-04-26T13:42:27.035Z,1.77
2018-04-26T13:44:55.276Z,1.90
2018-04-26T13:47:24.194Z,1.70
2018-04-26T13:49:52.339Z,1.52
2018-04-26T13:52:21.339Z,1.80
2018-04-26T13:54:49.475Z,1.70
2018-04-26T13:57:17.646Z,1.80
2018-04-26T13:59:45.760Z,2.05
2018-04-26T14:02:13.907Z,1.83
2018-04-26T14:04:42.828Z,1.87
2018-04-26T14:07:10.992Z,1.87
2018-04-26T14:09:39.132Z,1.80
2018-04-26T14:12:07.348Z,2.00
2018-04-26T14:14:36.346Z,1.80
2018-04-26T14:17:04.479Z,1.52
2018-04-26T14:19:32.647Z,1.62
2018-04-26T14:22:01.564Z,1.90
2018-04-26T14:24:29.719Z,1.83
2018-04-26T14:26:58.710Z,1.85
2018-04-26T14:29:27.833Z,2.05
2018-04-26T14:31:56.613Z,2.05
2018-04-26T14:34:24.788Z,2.10
2018-04-26T14:36:52.944Z,1.70
2018-04-26T14:39:21.117Z,1.67
2018-04-26T14:41:50.006Z,1.60
2018-04-26T14:44:18.932Z,1.83
2018-04-26T14:46:47.172Z,2.30
2018-04-26T14:49:15.327Z,1.77
2018-04-26T14:51:43.439Z,1.73
2018-04-26T14:54:11.583Z,1.87
2018-04-26T14:56:39.695Z,2.30
2018-04-26T14:59:07.926Z,1.77
2018-04-26T15:01:36.817Z,1.93
2018-04-26T15:04:05.717Z,1.30
2018-04-26T15:06:33.860Z,1.80
2018-04-26T15:09:02.773Z,1.80
2018-04-26T15:11:30.931Z,1.73
2018-04-26T15:13:59.848Z,1.40
2018-04-26T15:16:28.738Z,2.07
2018-04-26T15:18:57.729Z,2.30
2018-04-26T15:21:25.875Z,1.73
2018-04-26T15:23:54.778Z,2.27
2018-04-26T15:26:23.650Z,2.00
2018-04-26T15:28:52.663Z,2.27
2018-04-26T15:31:21.563Z,1.60
2018-04-26T15:33:49.739Z,2.37
2018-04-26T15:36:17.988Z,1.70
2018-04-26T15:38:46.286Z,1.90
2018-04-26T15:41:15.288Z,1.83
2018-04-26T15:43:43.416Z,1.70
2018-04-26T15:46:12.495Z,1.47
2018-04-26T15:48:40.629Z,1.73
2018-04-26T15:51:08.818Z,1.90
2018-04-26T15:53:48.863Z,1.50
2018-04-26T15:56:29.670Z,1.70
2018-04-26T15:59:09.616Z,1.80
2018-04-26T16:05:34.116Z,2.40
2018-04-26T16:11:34.348Z,2.47
2018-04-26T16:14:08.927Z,2.20
2018-04-26T16:17:04.579Z,2.33
2018-04-26T16:19:51.172Z,2.63
2018-04-26T16:22:36.989Z,2.33
2018-04-26T16:25:17.124Z,2.30
2018-04-26T16:27:56.447Z,3.00
2018-04-26T16:30:38.299Z,2.33
2018-04-26T16:33:18.291Z,1.87
2018-04-26T16:35:59.102Z,1.77
2018-04-26T16:38:39.195Z,2.70
2018-04-26T16:41:07.380Z,2.07
2018-04-26T16:43:35.597Z,3.00
2018-04-26T16:46:04.558Z,2.40
2018-04-26T16:48:33.566Z,2.87
2018-04-26T16:51:01.744Z,3.03
2018-04-26T16:53:30.643Z,3.33
2018-04-26T16:55:58.767Z,7.70
2018-04-26T16:58:26.915Z,2.80
2018-04-26T17:00:55.050Z,2.17
2018-04-26T17:03:23.217Z,2.60
2018-04-26T17:05:52.113Z,2.63
2018-04-26T17:08:21.029Z,2.77
2018-04-26T17:10:49.159Z,2.40
2018-04-26T17:13:18.154Z,2.37
2018-04-26T17:15:46.318Z,2.40
2018-04-26T17:18:15.240Z,2.50
2018-04-26T17:20:43.396Z,2.30
2018-04-26T17:23:12.293Z,2.07
2018-04-26T17:25:40.428Z,2.33
2018-04-26T17:28:09.376Z,2.47
2018-04-26T17:30:37.494Z,2.20
2018-04-26T17:33:06.458Z,2.97
2018-04-26T17:35:34.629Z,2.43
2018-04-26T17:38:02.766Z,2.60
2018-04-26T17:40:30.956Z,2.30
2018-04-26T17:42:59.120Z,2.87
2018-04-26T17:45:27.255Z,2.60
2018-04-26T17:47:56.203Z,2.43
2018-04-26T17:50:24.343Z,2.20
2018-04-26T17:52:52.512Z,3.50
2018-04-26T17:55:20.636Z,3.17
2018-04-26T17:57:48.780Z,2.55
2018-04-26T18:00:17.099Z,2.20
2018-04-26T18:02:46.011Z,3.75
2018-04-26T18:05:14.185Z,3.28
2018-04-26T18:07:43.054Z,2.13
2018-04-26T18:10:12.077Z,2.75
2018-04-26T18:12:41.081Z,3.90
2018-04-26T18:15:09.327Z,2.30
2018-04-26T18:17:37.467Z,3.42
2018-04-26T18:20:08.573Z,12.98
2018-04-26T18:22:34.536Z,4.80
2018-04-26T18:25:03.500Z,5.20
2018-04-26T18:27:31.616Z,3.47
2018-04-26T18:30:00.534Z,2.72
2018-04-26T18:32:28.702Z,2.80
2018-04-26T18:34:56.855Z,2.40
2018-04-26T18:37:24.991Z,5.43
2018-04-26T18:39:53.145Z,2.90
2018-04-26T18:42:21.490Z,4.28
2018-04-26T18:44:49.647Z,5.07
2018-04-26T18:47:17.770Z,4.72
2018-04-26T18:49:46.024Z,2.65
2018-04-26T18:52:14.176Z,3.17
2018-04-26T18:54:42.349Z,3.05
2018-04-26T18:57:10.505Z,2.95
2018-04-26T18:59:40.056Z,3.00
2018-04-26T19:02:08.219Z,3.58
2018-04-26T19:04:36.378Z,3.30
2018-04-26T19:07:04.517Z,3.20
2018-04-26T19:09:32.675Z,3.35
2018-04-26T19:12:00.827Z,2.58
2018-04-26T19:14:29.045Z,3.40
2018-04-26T19:16:57.231Z,4.45
2018-04-26T19:19:25.477Z,3.20
2018-04-26T19:21:54.602Z,3.63
2018-04-26T19:24:22.744Z,3.97
2018-04-26T19:26:51.787Z,3.92
2018-04-26T19:29:20.009Z,3.80
2018-04-26T19:31:48.939Z,3.40
2018-04-26T19:34:17.071Z,5.65
2018-04-26T19:36:45.274Z,3.35
2018-04-26T19:39:13.422Z,3.00
2018-04-26T19:41:42.339Z,2.87
2018-04-26T19:44:10.523Z,2.58
2018-04-26T19:46:38.888Z,3.00
2018-04-26T19:49:07.258Z,2.65
2018-04-26T19:51:35.431Z,2.87
2018-04-26T19:54:03.565Z,2.85
2018-04-26T19:56:32.498Z,3.40
2018-04-26T19:59:00.720Z,3.53
2018-04-26T20:01:29.604Z,2.95
2018-04-26T20:03:57.774Z,3.92
2018-04-26T20:06:25.920Z,2.70
2018-04-26T20:08:54.243Z,3.12
2018-04-26T20:11:22.332Z,3.08
2018-04-26T20:13:51.227Z,2.58
2018-04-26T20:16:21.555Z,3.20
2018-04-26T20:18:50.462Z,3.00
2018-04-26T20:21:18.598Z,3.05
2018-04-26T20:23:46.786Z,3.10
2018-04-26T20:26:14.963Z,3.00
2018-04-26T20:28:43.154Z,3.08
2018-04-26T20:31:11.283Z,3.45
2018-04-26T20:33:40.193Z,2.97
2018-04-26T20:36:08.404Z,2.78
2018-04-26T20:38:36.500Z,3.50
2018-04-26T20:41:05.480Z,3.22
2018-04-26T20:43:33.635Z,3.47
2018-04-26T20:46:01.870Z,3.35
2018-04-26T20:48:40.726Z,3.10
2018-04-26T20:51:08.870Z,3.08
2018-04-26T20:53:37.046Z,2.55
2018-04-26T20:56:05.204Z,3.50
2018-04-26T20:58:33.348Z,3.72
2018-04-26T21:01:01.559Z,3.87
2018-04-26T21:03:29.769Z,4.18
2018-04-26T21:05:57.935Z,3.60
2018-04-26T21:08:26.053Z,3.87
2018-04-26T21:10:54.954Z,3.40
2018-04-26T21:13:23.134Z,3.90
2018-04-26T21:15:51.284Z,4.00
2018-04-26T21:18:19.413Z,3.65
2018-04-26T21:20:47.623Z,4.40
2018-04-26T21:23:16.623Z,3.57
2018-04-26T21:25:45.544Z,3.65
2018-04-26T21:28:13.643Z,3.17
2018-04-26T21:30:41.784Z,4.12
2018-04-26T21:33:09.933Z,3.35
2018-04-26T21:35:38.144Z,3.42
2018-04-26T21:38:07.095Z,3.90
2018-04-26T21:40:35.215Z,3.60
2018-04-26T21:43:03.376Z,3.30
2018-04-26T21:45:31.513Z,3.65
2018-04-26T21:47:59.654Z,3.72
2018-04-26T21:50:33.447Z,3.83
2018-04-26T21:53:07.263Z,3.30
2018-04-26T21:55:41.023Z,3.55
2018-04-26T21:58:14.868Z,3.35
2018-04-26T22:00:48.804Z,3.60
2018-04-26T22:03:19.618Z,4.18
2018-04-26T22:05:48.508Z,3.58
2018-04-26T22:08:17.472Z,3.57
2018-04-26T22:10:45.547Z,4.15
2018-04-26T22:13:13.737Z,3.60
2018-04-26T22:15:42.648Z,4.05
2018-04-26T22:18:10.771Z,4.80
2018-04-26T22:20:38.973Z,4.35
2018-04-26T22:23:07.907Z,3.93
2018-04-26T22:25:36.020Z,4.32
2018-04-26T22:28:04.142Z,4.30
2018-04-26T22:30:32.279Z,5.05
2018-04-26T22:33:01.254Z,5.40
2018-04-26T22:35:29.368Z,5.20
2018-04-26T22:37:57.496Z,5.37
2018-04-26T22:40:25.615Z,5.10
2018-04-26T22:42:53.768Z,5.32
2018-04-26T22:45:22.739Z,4.90
2018-04-26T22:47:51.635Z,6.20
2018-04-26T22:50:20.541Z,4.70
2018-04-26T22:52:49.430Z,4.10
2018-04-26T22:55:17.535Z,5.68
2018-04-26T22:57:45.764Z,4.72
2018-04-26T23:00:14.653Z,4.80
2018-04-26T23:02:43.539Z,4.43
2018-04-26T23:05:12.456Z,4.30
2018-04-26T23:07:40.599Z,4.47
2018-04-26T23:10:09.613Z,4.65
2018-04-26T23:12:37.728Z,4.50
2018-04-26T23:15:05.843Z,4.40
2018-04-26T23:17:34.710Z,4.10
2018-04-26T23:20:03.584Z,4.15
2018-04-26T23:22:31.726Z,4.40
2018-04-26T23:24:59.835Z,4.20
2018-04-26T23:27:27.979Z,4.32
2018-04-26T23:29:56.098Z,3.85
2018-04-26T23:32:25.084Z,3.80
2018-04-26T23:34:53.972Z,4.32
2018-04-26T23:37:22.970Z,4.00
2018-04-26T23:39:51.855Z,3.92
2018-04-26T23:42:20.861Z,3.83
2018-04-26T23:44:49.020Z,3.42
2018-04-26T23:47:17.907Z,4.30
2018-04-26T23:49:46.784Z,3.60
2018-04-26T23:52:15.778Z,4.23
2018-04-26T23:54:44.649Z,3.62
2018-04-26T23:57:12.858Z,3.80
2018-04-26T23:59:40.986Z,4.10
